OITM  Sahand  Airport

Maragheh, Iran

Add Bookmark
ICAO OITM
IATA ACP
Type Airport
Status Operational
Latitude
37° 20' 52" N
37.348000
Longitude
46° 7' 40" E
46.127899
Local (DST + 5) UTC (GMT + 4)
Feb 6, 2016 04:51 Feb 6, 2016 13:21
Sunrise-Sunset Local UTC
Begin Civil Twilight 06:55 03:25
Sunrise 07:22 03:52
Sunset 05:56 14:26
End Civil Twilight 06:23 14:53
VFR
VFR
MVFR
MVFR
IFR
IFR
LIFR
LIFR
Unknown
Unavailable

Current Weather

METAR Observed MVFR
OITM 061300Z 16012KT 7000 -RA FEW029 SCT032 OVC080 03/02 Q1017 Sat, Feb 6, 2016 @ 13:00 UTC
(21 Minutes ago)
Marginal Visual Flight Rules
Wind Visibility Clouds Conditions
160° at 12 knots (22 kph) 7,001 m
  • Few at 2,900 ft AGL
  • Scattered at 3,200 ft AGL
  • Overcast at 8,000 ft AGL
  • Light Rain
Temperatures Readings Precipitation
Current Temp
3°C
37°F
Dewpoint
2°C
36°F
Humidity 93%
Altimeter 30.03" Hg
Sea Level Pressure 1,017 mb
Field Elevation
1,340 m
4,396 ft
None Recorded
-
-

CheckWX.com is intended as a tool to help pilots better visualize weather data. It is not intended as a substitute for an official weather briefing obtained from a Flight Service Station. CheckWX.com does not meet the FAA requirements for an official pre-flight weather briefing. Therefore, it's important that pilots still call and obtain an official FSS pre-flight weather briefing.

© 2007-2016 CheckWX.com
13:21:51 UTC